Darien, Illinois
Current Conditions -  °F | °C
As of 9:55 AM on Friday 21 Nov 2014 (Local Time) from KLOT Reporting Station
Clear Clear  
Wind Chill: 14°   Ceiling: Unl
Heat Index: 23°   Visibility: 10mi
Dew Point:   Wind: 7mph
Humidity: 46%   Direction: 180°S
Pressure: 30.47"   Gusts: NA
Location:  41.75°N, 87.98°W
Report Text: KLOT 211555Z AUTO 18006KT 10SM CLR M05/M15 A3047 RMK AO2 T10521153
Loading
Personal Weather Stations






























Interactive Weather Map New forecast layout! Learn more

10-Day Weather Forecast

Advertisements
Track Severe Weather on mobile